createdAt,value
2022-12-24T00:01:05.870Z,99800.06
2022-12-24T00:03:34.048Z,99814.09
2022-12-24T00:06:15.742Z,99826.66
2022-12-24T00:08:42.620Z,99832.00
2022-12-24T00:11:09.481Z,99834.91
2022-12-24T00:13:36.375Z,99823.50
2022-12-24T00:16:03.542Z,99833.47
2022-12-24T00:18:30.478Z,99832.81
2022-12-24T00:20:57.421Z,99840.13
2022-12-24T00:23:24.504Z,99843.22
2022-12-24T00:25:51.476Z,99835.72
2022-12-24T00:28:18.482Z,99836.53
2022-12-24T00:30:45.414Z,99848.59
2022-12-24T00:33:12.525Z,99850.22
2022-12-24T00:35:40.668Z,99849.22
2022-12-24T00:38:08.800Z,99853.31
2022-12-24T00:40:35.983Z,99865.34
2022-12-24T00:43:03.218Z,99870.44
2022-12-24T00:45:30.395Z,99873.22
2022-12-24T00:47:57.264Z,99882.69
2022-12-24T00:50:24.285Z,99877.41
2022-12-24T00:52:51.365Z,99892.91
2022-12-24T00:55:18.328Z,99896.53
2022-12-24T00:57:45.272Z,99883.97
2022-12-24T01:00:12.527Z,99888.72
2022-12-24T01:02:39.562Z,99891.03
2022-12-24T01:05:13.011Z,99894.28
2022-12-24T01:07:44.957Z,99900.63
2022-12-24T01:10:17.109Z,99907.97
2022-12-24T01:12:45.337Z,99901.44
2022-12-24T01:15:14.491Z,99905.69
2022-12-24T01:17:41.634Z,99907.66
2022-12-24T01:20:14.600Z,99893.63
2022-12-24T01:22:41.521Z,99907.50
2022-12-24T01:25:09.547Z,99920.03
2022-12-24T01:27:36.651Z,99920.03
2022-12-24T01:30:08.926Z,99934.88
2022-12-24T01:32:36.104Z,99944.50
2022-12-24T01:35:03.291Z,99934.06
2022-12-24T01:37:30.250Z,99937.81
2022-12-24T01:40:17.163Z,99955.25
2022-12-24T01:43:21.876Z,99968.59
2022-12-24T01:45:58.032Z,99978.38
2022-12-24T01:49:00.934Z,99972.53
2022-12-24T01:51:36.423Z,99967.97
2022-12-24T01:54:30.940Z,99971.41
2022-12-24T01:57:06.298Z,99967.63
2022-12-24T01:59:34.469Z,99969.75
2022-12-24T02:02:02.306Z,99977.91
2022-12-24T02:04:38.341Z,99979.53
2022-12-24T02:07:05.578Z,99973.84
2022-12-24T02:09:34.650Z,99966.81
2022-12-24T02:12:03.350Z,99973.19
2022-12-24T02:14:32.351Z,99976.78
2022-12-24T02:17:13.607Z,99974.16
2022-12-24T02:20:27.179Z,99974.66
2022-12-24T02:23:21.275Z,99978.56
2022-12-24T02:26:15.870Z,99982.75
2022-12-24T02:29:21.367Z,99992.06
2022-12-24T02:32:13.543Z,99989.00
2022-12-24T02:35:24.309Z,99988.47
2022-12-24T02:38:04.374Z,99984.56
2022-12-24T02:40:43.291Z,99980.66
2022-12-24T02:43:16.734Z,99999.38
2022-12-24T02:45:55.192Z,100012.91
2022-12-24T02:48:26.725Z,100009.31
2022-12-24T02:51:09.368Z,100007.72
2022-12-24T02:53:37.682Z,100011.84
2022-12-24T02:56:41.013Z,100021.00
2022-12-24T03:00:04.120Z,100016.94
2022-12-24T03:03:31.264Z,100025.44
2022-12-24T03:06:09.681Z,100038.63
2022-12-24T03:09:14.180Z,100035.34
2022-12-24T03:11:50.888Z,100025.56
2022-12-24T03:14:18.673Z,100019.09
2022-12-24T03:16:46.757Z,100017.16
2022-12-24T03:19:13.893Z,100023.00
2022-12-24T03:21:42.559Z,100015.66
2022-12-24T03:24:10.871Z,100016.81
2022-12-24T03:26:39.635Z,100022.38
2022-12-24T03:29:08.365Z,100031.81
2022-12-24T03:31:50.870Z,100035.09
2022-12-24T03:34:19.120Z,100024.63
2022-12-24T03:36:49.193Z,100027.91
2022-12-24T03:39:16.265Z,100047.28
2022-12-24T03:41:43.261Z,100034.69
2022-12-24T03:44:10.282Z,100048.53
2022-12-24T03:46:37.180Z,100044.50
2022-12-24T03:49:04.137Z,100052.50
2022-12-24T03:51:31.060Z,100041.19
2022-12-24T03:53:58.451Z,100041.13
2022-12-24T03:56:26.233Z,100048.22
2022-12-24T03:58:54.195Z,100052.84
2022-12-24T04:01:21.228Z,100044.38
2022-12-24T04:03:48.254Z,100048.22
2022-12-24T04:06:17.968Z,100044.84
2022-12-24T04:08:45.103Z,100056.41
2022-12-24T04:11:15.856Z,100057.34
2022-12-24T04:13:43.229Z,100057.28
2022-12-24T04:16:13.556Z,100049.13
2022-12-24T04:18:41.120Z,100039.59
2022-12-24T04:21:09.103Z,100056.63
2022-12-24T04:23:38.872Z,100053.69
2022-12-24T04:26:09.131Z,100054.41
2022-12-24T04:28:37.232Z,100068.06
2022-12-24T04:31:09.150Z,100070.28
2022-12-24T04:33:36.875Z,100069.31
2022-12-24T04:36:06.464Z,100067.94
2022-12-24T04:38:35.001Z,100069.63
2022-12-24T04:41:24.919Z,100080.53
2022-12-24T04:43:54.506Z,100084.63
2022-12-24T04:46:30.663Z,100079.72
2022-12-24T04:48:58.606Z,100078.94
2022-12-24T04:51:26.700Z,100076.88
2022-12-24T04:53:54.574Z,100074.41
2022-12-24T04:56:25.037Z,100077.53
2022-12-24T04:58:53.003Z,100084.53
2022-12-24T05:01:29.376Z,100087.97
2022-12-24T05:03:56.719Z,100083.69
2022-12-24T05:06:30.280Z,100075.09
2022-12-24T05:08:58.176Z,100074.81
2022-12-24T05:11:25.734Z,100071.34
2022-12-24T05:13:52.890Z,100069.06
2022-12-24T05:16:22.638Z,100060.16
2022-12-24T05:18:50.107Z,100061.34
2022-12-24T05:21:21.425Z,100058.69
2022-12-24T05:24:07.232Z,100072.03
2022-12-24T05:26:41.909Z,100074.34
2022-12-24T05:29:12.092Z,100075.09
2022-12-24T05:31:40.305Z,100079.81
2022-12-24T05:34:08.028Z,100079.66
2022-12-24T05:36:35.255Z,100078.69
2022-12-24T05:39:02.238Z,100079.88
2022-12-24T05:41:29.223Z,100091.84
2022-12-24T05:43:56.364Z,100100.00
2022-12-24T05:46:25.040Z,100096.06
2022-12-24T05:48:53.389Z,100096.25
2022-12-24T05:51:22.379Z,100097.06
2022-12-24T05:53:51.663Z,100099.56
2022-12-24T05:56:22.538Z,100103.09
2022-12-24T05:58:52.048Z,100095.84
2022-12-24T06:01:19.860Z,100090.78
2022-12-24T06:03:47.024Z,100097.56
2022-12-24T06:06:19.358Z,100107.19
2022-12-24T06:08:47.812Z,100110.16
2022-12-24T06:11:17.080Z,100113.34
2022-12-24T06:13:44.087Z,100117.59
2022-12-24T06:16:20.022Z,100117.97
2022-12-24T06:18:47.367Z,100118.41
2022-12-24T06:21:15.206Z,100126.75
2022-12-24T06:23:44.204Z,100136.22
2022-12-24T06:26:15.982Z,100136.91
2022-12-24T06:28:44.825Z,100156.41
2022-12-24T06:31:16.568Z,100165.47
2022-12-24T06:33:44.372Z,100157.47
2022-12-24T06:36:21.866Z,100171.66
2022-12-24T06:38:49.656Z,100159.03
2022-12-24T06:41:18.244Z,100170.94
2022-12-24T06:43:47.286Z,100166.00
2022-12-24T06:46:15.704Z,100170.72
2022-12-24T06:48:45.328Z,100167.47
2022-12-24T06:51:19.445Z,100167.66
2022-12-24T06:53:47.073Z,100165.38
2022-12-24T06:56:14.620Z,100174.09
2022-12-24T06:58:42.109Z,100162.69
2022-12-24T07:01:13.580Z,100168.25
2022-12-24T07:03:40.853Z,100179.97
2022-12-24T07:06:15.450Z,100192.09
2022-12-24T07:08:42.354Z,100193.06
2022-12-24T07:11:09.225Z,100192.56
2022-12-24T07:13:36.170Z,100192.34
2022-12-24T07:16:05.265Z,100197.84
2022-12-24T07:18:32.899Z,100203.84
2022-12-24T07:21:00.922Z,100198.50
2022-12-24T07:23:28.016Z,100197.38
2022-12-24T07:25:54.894Z,100183.69
2022-12-24T07:28:27.497Z,100198.44
2022-12-24T07:30:56.663Z,100201.34
2022-12-24T07:33:25.245Z,100200.25
2022-12-24T07:36:05.725Z,100207.75
2022-12-24T07:38:38.340Z,100207.75
2022-12-24T07:41:05.493Z,100210.38
2022-12-24T07:43:33.959Z,100211.25
2022-12-24T07:46:00.834Z,100216.66
2022-12-24T07:48:30.072Z,100220.59
2022-12-24T07:50:57.879Z,100215.03
2022-12-24T07:53:27.246Z,100218.22
2022-12-24T07:55:54.396Z,100229.72
2022-12-24T07:58:22.209Z,100235.91
2022-12-24T08:00:49.123Z,100233.06
2022-12-24T08:03:21.967Z,100218.84
2022-12-24T08:05:49.726Z,100226.59
2022-12-24T08:08:16.667Z,100236.13
2022-12-24T08:10:45.645Z,100237.09
2022-12-24T08:13:13.554Z,100235.75
2022-12-24T08:15:40.542Z,100241.25
2022-12-24T08:18:08.103Z,100233.53
2022-12-24T08:20:39.716Z,100241.63
2022-12-24T08:23:08.407Z,100244.16
2022-12-24T08:25:35.705Z,100244.47
2022-12-24T08:28:02.995Z,100235.09
2022-12-24T08:30:30.155Z,100229.88
2022-12-24T08:32:57.224Z,100237.31
2022-12-24T08:35:24.088Z,100244.38
2022-12-24T08:37:51.029Z,100248.03
2022-12-24T08:40:18.093Z,100244.81
2022-12-24T08:42:45.272Z,100250.09
2022-12-24T08:45:12.360Z,100249.38
2022-12-24T08:47:39.906Z,100257.38
2022-12-24T08:50:08.485Z,100248.91
2022-12-24T08:52:35.858Z,100260.53
2022-12-24T08:55:03.504Z,100257.75
2022-12-24T08:57:30.641Z,100258.25
2022-12-24T08:59:57.495Z,100264.75
2022-12-24T09:02:24.569Z,100262.22
2022-12-24T09:04:51.596Z,100271.69
2022-12-24T09:07:18.457Z,100269.16
2022-12-24T09:09:45.416Z,100273.63
2022-12-24T09:12:12.412Z,100278.44
2022-12-24T09:14:39.328Z,100284.19
2022-12-24T09:17:06.332Z,100286.28
2022-12-24T09:19:33.323Z,100291.91
2022-12-24T09:22:00.353Z,100292.41
2022-12-24T09:24:27.391Z,100303.69
2022-12-24T09:26:57.989Z,100301.38
2022-12-24T09:29:25.479Z,100309.06
2022-12-24T09:31:52.717Z,100309.34
2022-12-24T09:34:22.698Z,100314.50
2022-12-24T09:36:54.177Z,100325.44
2022-12-24T09:39:21.177Z,100328.63
2022-12-24T09:42:09.412Z,100326.75
2022-12-24T09:44:48.007Z,100313.22
2022-12-24T09:47:44.761Z,100316.34
2022-12-24T09:50:33.995Z,100316.28
2022-12-24T09:53:07.923Z,100320.59
2022-12-24T09:55:44.579Z,100321.03
2022-12-24T09:58:25.436Z,100331.91
2022-12-24T10:00:53.788Z,100326.22
2022-12-24T10:03:20.749Z,100327.31
2022-12-24T10:05:57.321Z,100334.38
2022-12-24T10:08:59.517Z,100334.44
2022-12-24T10:12:00.114Z,100332.88
2022-12-24T10:14:51.709Z,100346.81
2022-12-24T10:17:45.697Z,100359.97
2022-12-24T10:21:01.207Z,100361.78
2022-12-24T10:23:39.333Z,100362.38
2022-12-24T10:26:29.066Z,100367.19
2022-12-24T10:29:01.937Z,100363.00
2022-12-24T10:31:36.571Z,100366.75
2022-12-24T10:34:24.434Z,100361.06
2022-12-24T10:36:52.006Z,100356.53
2022-12-24T10:39:26.261Z,100368.66
2022-12-24T10:41:57.848Z,100369.66
2022-12-24T10:44:29.784Z,100379.09
2022-12-24T10:46:56.890Z,100364.81
2022-12-24T10:49:36.786Z,100367.88
2022-12-24T10:52:12.523Z,100355.75
2022-12-24T10:55:18.969Z,100359.56
2022-12-24T10:57:58.429Z,100351.78
2022-12-24T11:00:31.789Z,100351.19
2022-12-24T11:03:33.674Z,100345.88
2022-12-24T11:06:13.185Z,100340.03
2022-12-24T11:08:44.118Z,100347.81
2022-12-24T11:11:20.590Z,100355.00
2022-12-24T11:13:50.298Z,100348.16
2022-12-24T11:16:33.736Z,100348.56
2022-12-24T11:19:05.603Z,100345.03
2022-12-24T11:21:36.491Z,100358.41
2022-12-24T11:24:12.744Z,100361.03
2022-12-24T11:26:42.421Z,100363.34
2022-12-24T11:29:22.914Z,100369.44
2022-12-24T11:31:52.693Z,100367.25
2022-12-24T11:34:27.164Z,100357.28
2022-12-24T11:37:14.257Z,100360.72
2022-12-24T11:39:51.072Z,100357.78
2022-12-24T11:42:33.063Z,100346.59
2022-12-24T11:45:04.677Z,100328.19
2022-12-24T11:47:40.813Z,100332.94
2022-12-24T11:50:23.007Z,100316.72
2022-12-24T11:53:20.845Z,100308.72
2022-12-24T11:55:57.033Z,100302.19
2022-12-24T11:58:49.240Z,100307.44
2022-12-24T12:01:30.307Z,100300.56
2022-12-24T12:04:22.106Z,100302.03
2022-12-24T12:07:27.704Z,100311.59
2022-12-24T12:10:15.153Z,100314.66
2022-12-24T12:12:47.409Z,100312.84
2022-12-24T12:15:22.621Z,100317.56
2022-12-24T12:17:57.088Z,100330.22
2022-12-24T12:20:47.495Z,100322.34
2022-12-24T12:23:37.120Z,100345.28
2022-12-24T12:26:15.546Z,100336.78
2022-12-24T12:28:58.660Z,100344.13
2022-12-24T12:31:37.492Z,100346.16
2022-12-24T12:34:17.416Z,100342.34
2022-12-24T12:36:51.077Z,100330.75
2022-12-24T12:39:18.158Z,100353.22
2022-12-24T12:42:03.636Z,100350.88
2022-12-24T12:45:02.617Z,100343.47
2022-12-24T12:48:01.242Z,100340.31
2022-12-24T12:50:47.898Z,100346.69
2022-12-24T12:53:37.127Z,100336.31
2022-12-24T12:56:12.912Z,100346.44
2022-12-24T12:59:10.496Z,100345.38
2022-12-24T13:01:54.387Z,100353.59
2022-12-24T13:04:40.597Z,100353.78
2022-12-24T13:07:42.025Z,100363.63
2022-12-24T13:10:39.955Z,100351.78
2022-12-24T13:13:49.963Z,100359.78
2022-12-24T13:16:34.908Z,100357.50
2022-12-24T13:19:18.178Z,100359.31
2022-12-24T13:21:48.941Z,100345.78
2022-12-24T13:24:22.384Z,100357.75
2022-12-24T13:27:18.017Z,100354.56
2022-12-24T13:30:09.270Z,100354.91
2022-12-24T13:32:49.935Z,100338.97
2022-12-24T13:35:19.852Z,100342.22
2022-12-24T13:37:48.610Z,100331.84
2022-12-24T13:40:26.663Z,100335.91
2022-12-24T13:43:02.304Z,100319.38
2022-12-24T13:45:29.315Z,100332.72
2022-12-24T13:48:16.524Z,100308.69
2022-12-24T13:50:45.611Z,100315.38
2022-12-24T13:53:28.413Z,100320.03
2022-12-24T13:56:05.231Z,100319.66
2022-12-24T13:58:33.312Z,100326.50
2022-12-24T14:01:06.663Z,100323.25
2022-12-24T14:03:42.671Z,100328.16
2022-12-24T14:06:23.736Z,100320.66
2022-12-24T14:09:13.918Z,100314.38
2022-12-24T14:11:59.217Z,100317.47
2022-12-24T14:14:35.092Z,100299.38
2022-12-24T14:17:12.124Z,100305.84
2022-12-24T14:19:47.562Z,100302.75
2022-12-24T14:22:39.217Z,100314.28
2022-12-24T14:25:23.912Z,100317.00
2022-12-24T14:28:13.261Z,100319.94
2022-12-24T14:30:40.315Z,100326.13
2022-12-24T14:33:31.672Z,100324.16
2022-12-24T14:35:59.866Z,100314.34
2022-12-24T14:38:27.248Z,100335.78
2022-12-24T14:41:28.687Z,100338.41
2022-12-24T14:44:15.988Z,100347.72
2022-12-24T14:46:45.277Z,100341.97
2022-12-24T14:49:44.996Z,100328.78
2022-12-24T14:55:31.767Z,100336.09
2022-12-24T14:58:40.117Z,100337.91
2022-12-24T15:01:29.772Z,100338.22
2022-12-24T15:04:15.713Z,100336.41
2022-12-24T15:06:56.690Z,100330.22
2022-12-24T15:09:33.897Z,100333.75
2022-12-24T15:12:04.475Z,100343.94
2022-12-24T15:14:43.194Z,100346.13
2022-12-24T15:17:12.443Z,100339.94
2022-12-24T15:19:43.493Z,100338.00
2022-12-24T15:22:25.461Z,100334.28
2022-12-24T15:24:52.470Z,100331.53
2022-12-24T15:27:26.495Z,100340.25
2022-12-24T15:29:58.235Z,100355.31
2022-12-24T15:32:25.294Z,100364.69
2022-12-24T15:34:55.357Z,100365.91
2022-12-24T15:37:37.732Z,100371.75
2022-12-24T15:40:19.667Z,100371.09
2022-12-24T15:42:46.874Z,100368.00
2022-12-24T15:45:28.185Z,100371.41
2022-12-24T15:48:07.269Z,100369.56
2022-12-24T15:50:47.267Z,100375.78
2022-12-24T15:53:19.987Z,100383.84
2022-12-24T15:56:01.506Z,100393.03
2022-12-24T15:58:34.347Z,100398.84
2022-12-24T16:01:26.576Z,100389.69
2022-12-24T16:03:53.691Z,100393.63
2022-12-24T16:06:21.865Z,100393.50
2022-12-24T16:08:50.944Z,100399.09
2022-12-24T16:11:35.944Z,100403.78
2022-12-24T16:14:13.568Z,100405.50
2022-12-24T16:16:44.490Z,100409.88
2022-12-24T16:19:25.915Z,100406.78
2022-12-24T16:22:25.117Z,100409.69
2022-12-24T16:24:55.719Z,100413.31
2022-12-24T16:27:22.832Z,100412.47
2022-12-24T16:29:50.282Z,100397.78
2022-12-24T16:32:38.103Z,100418.16
2022-12-24T16:35:12.842Z,100426.78
2022-12-24T16:37:39.842Z,100435.94
2022-12-24T16:40:16.145Z,100430.47
2022-12-24T16:43:02.793Z,100439.09
2022-12-24T16:45:33.234Z,100436.25
2022-12-24T16:48:00.677Z,100434.47
2022-12-24T16:50:27.669Z,100430.25
2022-12-24T16:52:54.641Z,100426.44
2022-12-24T16:55:21.526Z,100431.06
2022-12-24T16:57:48.460Z,100428.13
2022-12-24T17:00:19.968Z,100419.13
2022-12-24T17:02:48.732Z,100421.38
2022-12-24T17:05:15.958Z,100430.38
2022-12-24T17:07:44.014Z,100433.91
2022-12-24T17:10:13.817Z,100441.34
2022-12-24T17:12:40.925Z,100446.94
2022-12-24T17:15:08.766Z,100437.13
2022-12-24T17:17:36.548Z,100431.09
2022-12-24T17:20:07.301Z,100450.84
2022-12-24T17:22:34.230Z,100456.31
2022-12-24T17:25:01.124Z,100457.81
2022-12-24T17:27:28.363Z,100465.44
2022-12-24T17:29:55.423Z,100464.84
2022-12-24T17:32:22.408Z,100471.16
2022-12-24T17:34:49.341Z,100451.38
2022-12-24T17:37:16.453Z,100450.31
2022-12-24T17:39:43.485Z,100451.56
2022-12-24T17:42:10.580Z,100454.16
2022-12-24T17:44:37.525Z,100452.50
2022-12-24T17:47:05.409Z,100451.53
2022-12-24T17:49:32.473Z,100439.50
2022-12-24T17:51:59.738Z,100445.28
2022-12-24T17:54:26.936Z,100446.94
2022-12-24T17:56:53.810Z,100440.69
2022-12-24T17:59:21.077Z,100439.88
2022-12-24T18:01:48.141Z,100448.78
2022-12-24T18:04:16.376Z,100443.69
2022-12-24T18:06:49.090Z,100441.50
2022-12-24T18:09:16.954Z,100445.84
2022-12-24T18:11:43.913Z,100443.16
2022-12-24T18:14:14.271Z,100445.03
2022-12-24T18:16:44.241Z,100454.31
2022-12-24T18:19:12.765Z,100452.38
2022-12-24T18:21:40.573Z,100457.88
2022-12-24T18:24:09.006Z,100451.47
2022-12-24T18:26:36.002Z,100449.00
2022-12-24T18:29:08.706Z,100451.03
2022-12-24T18:31:37.017Z,100460.41
2022-12-24T18:34:07.458Z,100456.44
2022-12-24T18:36:35.229Z,100455.41
2022-12-24T18:39:02.314Z,100454.06
2022-12-24T18:41:31.185Z,100455.44
2022-12-24T18:43:59.906Z,100450.69
2022-12-24T18:46:30.714Z,100455.50
2022-12-24T18:48:59.723Z,100442.63
2022-12-24T18:51:35.248Z,100441.38
2022-12-24T18:54:03.281Z,100435.06
2022-12-24T18:56:31.232Z,100440.41
2022-12-24T18:59:01.899Z,100438.38
2022-12-24T19:01:34.534Z,100448.34
2022-12-24T19:04:02.116Z,100448.75
2022-12-24T19:06:29.440Z,100448.56
2022-12-24T19:08:58.244Z,100458.38
2022-12-24T19:11:29.286Z,100457.34
2022-12-24T19:13:58.017Z,100458.63
2022-12-24T19:16:26.256Z,100468.81
2022-12-24T19:18:53.480Z,100468.28
2022-12-24T19:21:20.925Z,100465.38
2022-12-24T19:23:48.359Z,100468.44
2022-12-24T19:26:17.170Z,100471.81
2022-12-24T19:28:44.433Z,100473.28
2022-12-24T19:31:18.082Z,100479.50
2022-12-24T19:33:51.632Z,100491.31
2022-12-24T19:36:23.671Z,100489.53
2022-12-24T19:38:50.647Z,100487.41
2022-12-24T19:41:21.418Z,100494.69
2022-12-24T19:43:51.756Z,100491.41
2022-12-24T19:46:25.942Z,100499.91
2022-12-24T19:48:57.134Z,100501.53
2022-12-24T19:51:26.025Z,100493.88
2022-12-24T19:53:55.184Z,100504.28
2022-12-24T19:56:24.744Z,100498.25
2022-12-24T19:58:52.473Z,100498.38
2022-12-24T20:01:22.528Z,100500.72
2022-12-24T20:03:51.601Z,100498.13
2022-12-24T20:06:21.679Z,100490.03
2022-12-24T20:08:48.737Z,100493.88
2022-12-24T20:11:19.621Z,100487.56
2022-12-24T20:13:46.749Z,100497.97
2022-12-24T20:16:21.085Z,100489.78
2022-12-24T20:18:59.831Z,100480.41
2022-12-24T20:21:27.566Z,100482.75
2022-12-24T20:23:55.127Z,100489.88
2022-12-24T20:26:26.212Z,100498.78
2022-12-24T20:28:53.947Z,100511.50
2022-12-24T20:31:27.467Z,100506.28
2022-12-24T20:33:55.551Z,100507.25
2022-12-24T20:36:23.823Z,100510.53
2022-12-24T20:38:51.351Z,100513.72
2022-12-24T20:41:22.588Z,100523.00
2022-12-24T20:43:49.895Z,100521.50
2022-12-24T20:46:19.353Z,100519.88
2022-12-24T20:48:47.132Z,100535.16
2022-12-24T20:51:25.328Z,100537.66
2022-12-24T20:53:59.641Z,100539.75
2022-12-24T20:56:26.778Z,100536.47
2022-12-24T20:58:54.260Z,100548.16
2022-12-24T21:01:25.001Z,100551.00
2022-12-24T21:03:54.241Z,100564.75
2022-12-24T21:06:23.741Z,100563.13
2022-12-24T21:08:52.250Z,100558.47
2022-12-24T21:11:39.215Z,100554.78
2022-12-24T21:14:06.382Z,100552.16
2022-12-24T21:16:35.764Z,100540.94
2022-12-24T21:19:03.762Z,100542.72
2022-12-24T21:21:30.906Z,100530.97
2022-12-24T21:23:58.352Z,100528.66
2022-12-24T21:26:25.320Z,100519.06
2022-12-24T21:28:53.131Z,100511.38
2022-12-24T21:31:20.624Z,100496.16
2022-12-24T21:33:47.885Z,100486.56
2022-12-24T21:36:16.010Z,100485.59
2022-12-24T21:38:43.064Z,100480.84
2022-12-24T21:41:17.762Z,100489.19
2022-12-24T21:43:46.413Z,100485.25
2022-12-24T21:46:18.583Z,100487.09
2022-12-24T21:49:05.320Z,100492.03
2022-12-24T21:51:32.583Z,100487.56
2022-12-24T21:54:18.457Z,100483.19
2022-12-24T21:57:03.878Z,100484.00
2022-12-24T21:59:31.166Z,100484.25
2022-12-24T22:01:58.728Z,100480.69
2022-12-24T22:04:26.298Z,100482.72
2022-12-24T22:07:12.328Z,100477.72
2022-12-24T22:09:58.807Z,100481.00
2022-12-24T22:12:30.111Z,100471.66
2022-12-24T22:14:57.225Z,100464.34
2022-12-24T22:17:25.818Z,100468.00
2022-12-24T22:19:54.502Z,100468.72
2022-12-24T22:22:22.682Z,100477.44
2022-12-24T22:24:49.750Z,100481.56
2022-12-24T22:27:16.678Z,100483.94
2022-12-24T22:29:43.792Z,100484.59
2022-12-24T22:32:10.683Z,100484.28
2022-12-24T22:34:37.564Z,100476.91
2022-12-24T22:37:04.500Z,100474.97
2022-12-24T22:39:31.442Z,100477.06
2022-12-24T22:41:58.419Z,100479.50
2022-12-24T22:44:25.810Z,100491.56
2022-12-24T22:46:52.825Z,100487.59
2022-12-24T22:49:19.876Z,100495.66
2022-12-24T22:51:46.957Z,100502.38
2022-12-24T22:54:13.951Z,100502.38
2022-12-24T22:56:41.719Z,100500.47
2022-12-24T22:59:13.236Z,100485.09
2022-12-24T23:01:44.595Z,100484.00
2022-12-24T23:04:13.170Z,100483.34
2022-12-24T23:06:40.934Z,100492.22
2022-12-24T23:09:11.136Z,100494.44
2022-12-24T23:11:40.475Z,100479.22
2022-12-24T23:14:26.291Z,100479.06
2022-12-24T23:16:54.387Z,100483.75
2022-12-24T23:19:21.267Z,100477.16
2022-12-24T23:21:48.294Z,100478.56
2022-12-24T23:24:15.245Z,100484.03
2022-12-24T23:26:42.223Z,100476.13
2022-12-24T23:29:09.179Z,100479.94
2022-12-24T23:31:37.694Z,100478.16
2022-12-24T23:34:04.824Z,100474.59
2022-12-24T23:36:31.824Z,100471.19
2022-12-24T23:38:58.865Z,100472.69
2022-12-24T23:41:25.785Z,100476.38
2022-12-24T23:43:53.116Z,100486.78
2022-12-24T23:46:21.426Z,100479.38
2022-12-24T23:48:53.991Z,100481.97
2022-12-24T23:51:24.636Z,100486.06
2022-12-24T23:53:53.091Z,100487.47
2022-12-24T23:56:21.556Z,100482.97
2022-12-24T23:58:49.132Z,100484.47
